createdAt,value
2023-08-04T00:00:55.234Z,17.18
2023-08-04T00:03:23.283Z,17.12
2023-08-04T00:05:51.189Z,17.10
2023-08-04T00:08:19.099Z,17.07
2023-08-04T00:10:48.535Z,17.17
2023-08-04T00:13:16.482Z,17.22
2023-08-04T00:15:44.393Z,17.21
2023-08-04T00:18:12.368Z,17.21
2023-08-04T00:20:40.325Z,17.23
2023-08-04T00:23:08.234Z,17.22
2023-08-04T00:25:36.158Z,17.20
2023-08-04T00:28:05.851Z,17.20
2023-08-04T00:30:33.726Z,17.26
2023-08-04T00:33:02.538Z,17.21
2023-08-04T00:35:30.558Z,17.23
2023-08-04T00:37:58.570Z,17.27
2023-08-04T00:40:26.554Z,17.26
2023-08-04T00:42:54.471Z,17.18
2023-08-04T00:45:24.225Z,17.29
2023-08-04T00:47:53.327Z,17.34
2023-08-04T00:50:21.715Z,17.15
2023-08-04T00:52:50.866Z,17.23
2023-08-04T00:55:19.573Z,17.10
2023-08-04T00:57:49.071Z,17.28
2023-08-04T01:00:17.043Z,17.18
2023-08-04T01:02:46.397Z,17.30
2023-08-04T01:05:14.419Z,17.30
2023-08-04T01:07:46.173Z,17.44
2023-08-04T01:10:19.197Z,17.40
2023-08-04T01:12:52.892Z,17.47
2023-08-04T01:15:24.512Z,17.47
2023-08-04T01:17:54.030Z,17.49
2023-08-04T01:20:22.064Z,17.48
2023-08-04T01:22:51.471Z,17.43
2023-08-04T01:25:19.791Z,17.49
2023-08-04T01:27:51.815Z,17.58
2023-08-04T01:30:21.795Z,17.58
2023-08-04T01:32:50.012Z,17.51
2023-08-04T01:35:18.642Z,17.50
2023-08-04T01:37:46.714Z,17.52
2023-08-04T01:40:17.104Z,17.50
2023-08-04T01:42:45.056Z,17.53
2023-08-04T01:45:12.996Z,17.48
2023-08-04T01:50:23.405Z,17.48
2023-08-04T01:52:51.436Z,17.41
2023-08-04T01:55:20.841Z,17.44
2023-08-04T01:57:48.733Z,17.45
2023-08-04T02:00:17.558Z,17.45
2023-08-04T02:02:45.492Z,17.48
2023-08-04T02:05:15.014Z,17.45
2023-08-04T02:07:42.974Z,17.49
2023-08-04T02:10:11.291Z,17.47
2023-08-04T02:12:40.568Z,17.38
2023-08-04T02:15:09.342Z,17.31
2023-08-04T02:17:37.725Z,17.17
2023-08-04T02:20:07.231Z,17.20
2023-08-04T02:22:35.106Z,17.17
2023-08-04T02:25:03.004Z,17.14
2023-08-04T02:27:31.982Z,17.16
2023-08-04T02:30:01.283Z,17.06
2023-08-04T02:32:32.171Z,17.14
2023-08-04T02:35:00.046Z,17.12
2023-08-04T02:37:27.940Z,17.12
2023-08-04T02:39:56.101Z,17.12
2023-08-04T02:42:24.113Z,17.16
2023-08-04T02:44:55.028Z,17.14
2023-08-04T02:47:24.447Z,17.26
2023-08-04T02:49:52.408Z,17.29
2023-08-04T02:52:21.314Z,17.27
2023-08-04T02:54:49.345Z,17.37
2023-08-04T02:57:17.325Z,17.38
2023-08-04T02:59:45.299Z,17.35
2023-08-04T03:02:13.308Z,17.42
2023-08-04T03:04:42.534Z,17.35
2023-08-04T03:07:10.451Z,17.37
2023-08-04T03:09:38.321Z,17.35
2023-08-04T03:12:06.961Z,17.38
2023-08-04T03:14:34.880Z,17.32
2023-08-04T03:17:02.825Z,17.37
2023-08-04T03:19:30.773Z,17.44
2023-08-04T03:22:00.006Z,17.40
2023-08-04T03:24:27.950Z,17.42
2023-08-04T03:26:55.876Z,17.47
2023-08-04T03:29:23.818Z,17.47
2023-08-04T03:31:51.797Z,17.44
2023-08-04T03:34:19.770Z,17.40
2023-08-04T03:36:47.652Z,17.37
2023-08-04T03:39:16.921Z,17.37
2023-08-04T03:41:45.233Z,17.35
2023-08-04T03:44:13.507Z,17.30
2023-08-04T03:46:41.442Z,17.18
2023-08-04T03:49:09.363Z,17.24
2023-08-04T03:51:37.254Z,17.27
2023-08-04T03:54:06.135Z,17.22
2023-08-04T03:56:35.410Z,17.25
2023-08-04T03:59:06.342Z,17.20
2023-08-04T04:01:34.262Z,17.24
2023-08-04T04:04:02.199Z,17.26
2023-08-04T04:06:30.075Z,17.16
2023-08-04T04:08:58.018Z,17.22
2023-08-04T04:11:26.069Z,17.13
2023-08-04T04:13:55.364Z,17.17
2023-08-04T04:16:23.451Z,17.00
2023-08-04T04:18:51.349Z,17.02
2023-08-04T04:21:19.277Z,17.13
2023-08-04T04:23:47.160Z,17.19
2023-08-04T04:26:15.085Z,17.04
2023-08-04T04:28:43.029Z,17.09
2023-08-04T04:31:12.312Z,17.06
2023-08-04T04:33:40.249Z,17.03
2023-08-04T04:36:08.229Z,17.03
2023-08-04T04:38:36.135Z,17.04
2023-08-04T04:41:04.553Z,16.99
2023-08-04T04:43:32.785Z,16.96
2023-08-04T04:46:00.916Z,16.94
2023-08-04T04:48:30.293Z,16.95
2023-08-04T04:50:58.139Z,16.95
2023-08-04T04:53:26.157Z,16.98
2023-08-04T04:55:54.077Z,17.07
2023-08-04T04:58:21.952Z,17.17
2023-08-04T05:00:49.803Z,17.16
2023-08-04T05:03:17.704Z,17.20
2023-08-04T05:05:47.043Z,17.11
2023-08-04T05:08:14.933Z,17.53
2023-08-04T05:10:42.993Z,17.59
2023-08-04T05:13:10.832Z,17.65
2023-08-04T05:15:38.750Z,17.63
2023-08-04T05:18:06.651Z,17.82
2023-08-04T05:20:34.524Z,17.63
2023-08-04T05:23:03.894Z,17.27
2023-08-04T05:25:31.838Z,17.21
2023-08-04T05:28:20.697Z,17.18
2023-08-04T05:30:48.717Z,17.50
2023-08-04T05:33:16.685Z,17.43
2023-08-04T05:35:48.281Z,17.51
2023-08-04T05:38:17.571Z,17.44
2023-08-04T05:40:46.385Z,17.47
2023-08-04T05:43:15.074Z,17.44
2023-08-04T05:45:44.894Z,17.51
2023-08-04T05:48:13.177Z,17.43
2023-08-04T05:50:41.186Z,17.71
2023-08-04T05:53:09.175Z,17.66
2023-08-04T05:55:38.622Z,17.65
2023-08-04T05:58:06.636Z,17.76
2023-08-04T06:00:36.608Z,17.91
2023-08-04T06:03:05.425Z,17.82
2023-08-04T06:05:33.540Z,17.79
2023-08-04T06:08:02.085Z,17.93
2023-08-04T06:10:29.968Z,18.15
2023-08-04T06:12:59.236Z,18.23
2023-08-04T06:15:27.183Z,18.21
2023-08-04T06:17:55.149Z,18.24
2023-08-04T06:20:24.589Z,18.55
2023-08-04T06:22:52.476Z,18.77
2023-08-04T06:25:20.375Z,18.70
2023-08-04T06:27:48.276Z,18.66
2023-08-04T06:30:17.857Z,18.56
2023-08-04T06:32:47.286Z,18.61
2023-08-04T06:35:15.337Z,18.85
2023-08-04T06:37:43.441Z,18.89
2023-08-04T06:40:12.392Z,18.97
2023-08-04T06:42:40.338Z,18.59
2023-08-04T06:45:09.410Z,18.52
2023-08-04T06:47:39.640Z,18.14
2023-08-04T06:50:08.718Z,18.00
2023-08-04T06:52:36.902Z,18.02
2023-08-04T06:55:06.090Z,18.13
2023-08-04T06:57:34.233Z,18.16
2023-08-04T07:00:02.127Z,18.60
2023-08-04T07:02:30.069Z,18.70
2023-08-04T07:04:59.408Z,18.32
2023-08-04T07:07:27.506Z,18.53
2023-08-04T07:09:55.452Z,18.89
2023-08-04T07:12:23.408Z,19.20
2023-08-04T07:14:51.331Z,18.88
2023-08-04T07:17:19.147Z,18.86
2023-08-04T07:19:48.889Z,19.03
2023-08-04T07:22:18.221Z,18.85
2023-08-04T07:24:48.573Z,18.89
2023-08-04T07:27:16.458Z,19.27
2023-08-04T07:29:44.345Z,19.35
2023-08-04T07:32:12.236Z,19.10
2023-08-04T07:34:40.177Z,19.50
2023-08-04T07:37:08.080Z,19.45
2023-08-04T07:39:37.249Z,19.19
2023-08-04T07:42:06.030Z,18.90
2023-08-04T07:44:35.348Z,18.90
2023-08-04T07:47:03.316Z,18.56
2023-08-04T07:49:31.532Z,18.43
2023-08-04T07:51:59.440Z,18.74
2023-08-04T07:54:27.299Z,19.35
2023-08-04T07:56:56.776Z,19.67
2023-08-04T07:59:24.671Z,21.63
2023-08-04T08:01:52.651Z,22.63
2023-08-04T08:04:20.662Z,24.74
2023-08-04T08:06:48.971Z,25.87
2023-08-04T08:09:16.927Z,27.45
2023-08-04T08:11:44.859Z,26.85
2023-08-04T08:14:14.285Z,25.69
2023-08-04T08:16:42.285Z,24.19
2023-08-04T08:19:11.078Z,23.47
2023-08-04T08:21:38.947Z,22.92
2023-08-04T08:24:07.066Z,22.86
2023-08-04T08:26:34.962Z,22.65
2023-08-04T08:29:03.506Z,22.80
2023-08-04T08:31:32.817Z,23.44
2023-08-04T08:34:00.708Z,24.05
2023-08-04T08:36:28.714Z,24.46
2023-08-04T08:38:56.673Z,24.56
2023-08-04T08:41:24.777Z,25.50
2023-08-04T08:43:52.829Z,27.38
2023-08-04T08:46:20.915Z,26.43
2023-08-04T08:48:52.139Z,26.07
2023-08-04T08:51:22.408Z,24.62
2023-08-04T08:53:50.504Z,22.55
2023-08-04T08:56:18.960Z,21.78
2023-08-04T08:58:46.988Z,21.63
2023-08-04T09:01:15.110Z,21.56
2023-08-04T09:03:43.372Z,21.36
2023-08-04T09:06:12.740Z,20.94
2023-08-04T09:08:40.773Z,20.71
2023-08-04T09:11:09.113Z,20.92
2023-08-04T09:13:41.457Z,21.30
2023-08-04T09:16:13.104Z,21.19
2023-08-04T09:18:41.858Z,21.98
2023-08-04T09:21:13.731Z,22.20
2023-08-04T09:23:45.276Z,22.17
2023-08-04T09:26:13.203Z,24.13
2023-08-04T09:28:41.112Z,24.44
2023-08-04T09:31:10.265Z,24.10
2023-08-04T09:33:39.513Z,23.03
2023-08-04T09:36:08.866Z,24.18
2023-08-04T09:38:39.430Z,24.03
2023-08-04T09:41:08.400Z,24.75
2023-08-04T09:43:36.446Z,24.98
2023-08-04T09:46:06.505Z,24.50
2023-08-04T09:48:35.103Z,23.86
2023-08-04T09:51:07.530Z,22.63
2023-08-04T09:53:55.386Z,22.93
2023-08-04T09:56:27.266Z,22.35
2023-08-04T09:58:55.257Z,22.67
2023-08-04T10:01:23.244Z,23.70
2023-08-04T10:03:55.130Z,25.75
2023-08-04T10:06:23.477Z,28.31
2023-08-04T10:08:56.035Z,28.76
2023-08-04T10:11:24.406Z,27.93
2023-08-04T10:13:53.860Z,26.77
2023-08-04T10:16:24.501Z,25.34
2023-08-04T10:18:53.912Z,24.14
2023-08-04T10:21:24.995Z,23.10
2023-08-04T10:23:54.790Z,22.41
2023-08-04T10:26:22.801Z,22.07
2023-08-04T10:29:04.110Z,21.41
2023-08-04T10:31:46.098Z,21.12
2023-08-04T10:34:18.945Z,20.83
2023-08-04T10:37:05.519Z,21.00
2023-08-04T10:39:36.541Z,20.73
2023-08-04T10:42:08.310Z,20.60
2023-08-04T10:44:53.570Z,20.51
2023-08-04T10:47:36.213Z,20.70
2023-08-04T10:50:05.537Z,21.67
2023-08-04T10:52:35.427Z,24.06
2023-08-04T10:55:07.723Z,25.47
2023-08-04T10:57:37.749Z,27.33
2023-08-04T11:00:07.715Z,27.90
2023-08-04T11:02:36.484Z,28.87
2023-08-04T11:05:06.275Z,28.66
2023-08-04T11:07:34.656Z,27.68
2023-08-04T11:10:07.097Z,26.33
2023-08-04T11:12:37.776Z,25.17
2023-08-04T11:15:06.851Z,26.03
2023-08-04T11:17:34.984Z,25.93
2023-08-04T11:20:03.997Z,26.58
2023-08-04T11:22:33.021Z,24.95
2023-08-04T11:25:00.993Z,25.01
2023-08-04T11:27:30.333Z,25.25
2023-08-04T11:29:58.254Z,24.70
2023-08-04T11:32:26.625Z,24.44
2023-08-04T11:34:57.016Z,24.94
2023-08-04T11:37:25.583Z,25.87
2023-08-04T11:39:54.906Z,26.13
2023-08-04T11:42:24.811Z,25.82
2023-08-04T11:44:54.094Z,24.64
2023-08-04T11:47:22.048Z,24.56
2023-08-04T11:49:50.263Z,25.73
2023-08-04T11:52:18.265Z,25.64
2023-08-04T11:54:53.349Z,25.61
2023-08-04T11:57:22.098Z,24.42
2023-08-04T11:59:50.426Z,25.14
2023-08-04T12:02:19.981Z,25.02
2023-08-04T12:04:48.384Z,24.45
2023-08-04T12:07:17.064Z,23.75
2023-08-04T12:09:47.139Z,23.73
2023-08-04T12:12:15.005Z,24.42
2023-08-04T12:15:00.162Z,24.35
2023-08-04T12:17:38.881Z,24.20
2023-08-04T12:20:08.503Z,24.02
2023-08-04T12:22:37.471Z,23.99
2023-08-04T12:25:06.507Z,23.37
2023-08-04T12:27:34.971Z,24.01
2023-08-04T12:30:03.316Z,23.89
2023-08-04T12:32:32.890Z,24.19
2023-08-04T12:35:02.388Z,24.50
2023-08-04T12:37:30.439Z,24.83
2023-08-04T12:39:58.380Z,24.66
2023-08-04T12:42:26.366Z,25.83
2023-08-04T12:44:54.273Z,26.11
2023-08-04T12:47:22.730Z,26.04
2023-08-04T12:49:51.040Z,25.35
2023-08-04T12:52:21.019Z,25.82
2023-08-04T12:54:49.018Z,25.37
2023-08-04T12:57:16.985Z,25.43
2023-08-04T12:59:44.904Z,24.52
2023-08-04T13:02:12.854Z,24.73
2023-08-04T13:04:40.920Z,24.39
2023-08-04T13:07:08.991Z,23.32
2023-08-04T13:09:38.277Z,23.54
2023-08-04T13:12:06.736Z,23.48
2023-08-04T13:14:34.615Z,22.91
2023-08-04T13:17:02.594Z,22.59
2023-08-04T13:19:30.540Z,22.73
2023-08-04T13:21:58.522Z,22.97
2023-08-04T13:24:26.417Z,23.20
2023-08-04T13:26:55.713Z,24.24
2023-08-04T13:29:23.835Z,24.20
2023-08-04T13:31:52.098Z,24.60
2023-08-04T13:34:20.311Z,24.13
2023-08-04T13:36:48.251Z,23.87
2023-08-04T13:39:16.145Z,23.65
2023-08-04T13:41:44.001Z,23.35
2023-08-04T13:44:13.351Z,22.90
2023-08-04T13:46:41.490Z,22.53
2023-08-04T13:49:09.499Z,22.23
2023-08-04T13:51:37.406Z,22.31
2023-08-04T13:54:05.520Z,22.48
2023-08-04T13:56:34.655Z,22.52
2023-08-04T13:59:02.604Z,23.00
2023-08-04T14:01:32.261Z,23.26
2023-08-04T14:04:00.311Z,23.72
2023-08-04T14:06:29.489Z,23.50
2023-08-04T14:08:57.371Z,23.58
2023-08-04T14:11:25.261Z,24.29
2023-08-04T14:13:53.228Z,24.83
2023-08-04T14:16:21.205Z,24.05
2023-08-04T14:18:50.500Z,24.61
2023-08-04T14:21:18.556Z,24.81
2023-08-04T14:23:46.390Z,25.15
2023-08-04T14:26:14.417Z,25.42
2023-08-04T14:28:42.390Z,25.33
2023-08-04T14:31:10.389Z,25.01
2023-08-04T14:33:38.383Z,24.33
2023-08-04T14:36:07.853Z,24.55
2023-08-04T14:38:35.931Z,24.56
2023-08-04T14:41:03.888Z,24.13
2023-08-04T14:43:31.776Z,23.10
2023-08-04T14:45:59.741Z,23.44
2023-08-04T14:48:27.692Z,23.31
2023-08-04T14:50:55.748Z,23.49
2023-08-04T14:53:25.375Z,23.65
2023-08-04T14:55:53.339Z,23.75
2023-08-04T14:58:21.358Z,23.85
2023-08-04T15:00:51.242Z,23.83
2023-08-04T15:03:20.691Z,23.75
2023-08-04T15:05:48.728Z,23.74
2023-08-04T15:08:16.655Z,23.69
2023-08-04T15:10:46.030Z,23.79
2023-08-04T15:13:13.924Z,23.81
2023-08-04T15:15:41.892Z,23.84
2023-08-04T15:18:09.961Z,23.80
2023-08-04T15:20:38.739Z,23.84
2023-08-04T15:23:06.655Z,24.51
2023-08-04T15:25:34.596Z,25.52
2023-08-04T15:28:03.897Z,26.53
2023-08-04T15:30:35.425Z,27.43
2023-08-04T15:33:03.393Z,27.18
2023-08-04T15:35:31.445Z,27.49
2023-08-04T15:38:00.259Z,29.21
2023-08-04T15:40:28.293Z,29.27
2023-08-04T15:42:56.239Z,28.29
2023-08-04T15:45:25.631Z,28.02
2023-08-04T15:47:53.703Z,28.21
2023-08-04T15:50:21.676Z,29.03
2023-08-04T15:52:49.569Z,28.48
2023-08-04T15:55:17.525Z,28.00
2023-08-04T15:57:45.419Z,27.25
2023-08-04T16:00:14.528Z,26.57
2023-08-04T16:02:43.807Z,27.37
2023-08-04T16:05:11.740Z,27.45
2023-08-04T16:07:39.633Z,26.37
2023-08-04T16:10:08.804Z,26.03
2023-08-04T16:12:36.781Z,26.63
2023-08-04T16:15:05.292Z,26.40
2023-08-04T16:17:34.493Z,25.65
2023-08-04T16:20:04.433Z,25.54
2023-08-04T16:22:32.316Z,25.18
2023-08-04T16:25:00.232Z,24.60
2023-08-04T16:27:28.050Z,25.09
2023-08-04T16:29:55.924Z,25.25
2023-08-04T16:32:23.875Z,25.09
2023-08-04T16:34:51.740Z,25.02
2023-08-04T16:37:21.154Z,25.16
2023-08-04T16:39:49.343Z,24.76
2023-08-04T16:42:17.220Z,25.20
2023-08-04T16:44:45.111Z,25.36
2023-08-04T16:47:13.013Z,25.59
2023-08-04T16:49:40.828Z,25.89
2023-08-04T16:52:09.071Z,25.63
2023-08-04T16:54:38.283Z,26.27
2023-08-04T16:57:06.866Z,26.13
2023-08-04T16:59:34.815Z,25.93
2023-08-04T17:02:02.784Z,25.50
2023-08-04T17:04:32.779Z,25.67
2023-08-04T17:07:00.717Z,25.27
2023-08-04T17:09:28.575Z,24.99
2023-08-04T17:11:57.868Z,24.53
2023-08-04T17:14:25.817Z,24.43
2023-08-04T17:16:53.754Z,23.98
2023-08-04T17:19:21.662Z,23.79
2023-08-04T17:21:49.669Z,23.68
2023-08-04T17:24:17.590Z,23.74
2023-08-04T17:26:45.500Z,23.74
2023-08-04T17:29:14.735Z,23.68
2023-08-04T17:31:45.594Z,23.47
2023-08-04T17:34:13.797Z,23.38
2023-08-04T17:36:42.269Z,23.17
2023-08-04T17:39:10.246Z,22.88
2023-08-04T17:41:38.187Z,22.91
2023-08-04T17:44:06.854Z,22.74
2023-08-04T17:46:36.865Z,22.89
2023-08-04T17:49:04.862Z,22.69
2023-08-04T17:51:32.940Z,22.75
2023-08-04T17:54:00.788Z,22.85
2023-08-04T17:56:28.676Z,22.79
2023-08-04T17:58:56.620Z,22.75
2023-08-04T18:01:24.636Z,22.41
2023-08-04T18:03:54.085Z,22.36
2023-08-04T18:06:22.024Z,22.27
2023-08-04T18:08:50.401Z,22.15
2023-08-04T18:11:18.314Z,22.20
2023-08-04T18:13:46.462Z,22.27
2023-08-04T18:16:14.789Z,22.34
2023-08-04T18:18:42.726Z,22.18
2023-08-04T18:21:12.703Z,22.02
2023-08-04T18:23:40.603Z,22.03
2023-08-04T18:26:09.826Z,21.80
2023-08-04T18:28:37.735Z,21.79
2023-08-04T18:31:05.683Z,21.61
2023-08-04T18:33:33.567Z,21.63
2023-08-04T18:36:02.077Z,21.73
2023-08-04T18:38:31.476Z,21.49
2023-08-04T18:41:03.924Z,21.53
2023-08-04T18:43:31.905Z,21.54
2023-08-04T18:45:59.836Z,21.57
2023-08-04T18:48:27.796Z,21.48
2023-08-04T18:50:55.722Z,21.31
2023-08-04T18:53:23.765Z,21.36
2023-08-04T18:55:53.148Z,21.21
2023-08-04T18:58:21.009Z,21.11
2023-08-04T19:00:49.097Z,21.01
2023-08-04T19:03:17.261Z,20.91
2023-08-04T19:05:45.326Z,20.99
2023-08-04T19:08:13.318Z,21.00
2023-08-04T19:10:41.405Z,20.86
2023-08-04T19:13:10.693Z,20.91
2023-08-04T19:15:38.704Z,20.76
2023-08-04T19:18:06.742Z,20.69
2023-08-04T19:20:34.720Z,20.61
2023-08-04T19:23:02.697Z,20.57
2023-08-04T19:25:30.698Z,20.50
2023-08-04T19:27:58.644Z,20.43
2023-08-04T19:30:28.021Z,20.56
2023-08-04T19:32:58.345Z,20.42
2023-08-04T19:35:27.417Z,20.39
2023-08-04T19:37:55.416Z,20.30
2023-08-04T19:40:23.336Z,20.30
2023-08-04T19:42:51.359Z,20.24
2023-08-04T19:45:19.411Z,20.20
2023-08-04T19:47:48.849Z,20.24
2023-08-04T19:50:16.987Z,20.16
2023-08-04T19:52:44.993Z,20.07
2023-08-04T19:55:18.317Z,20.02
2023-08-04T19:57:49.482Z,19.95
2023-08-04T20:00:17.751Z,19.88
2023-08-04T20:02:45.833Z,19.86
2023-08-04T20:05:15.330Z,19.81
2023-08-04T20:07:43.312Z,19.81
2023-08-04T20:10:12.035Z,19.79
2023-08-04T20:12:39.985Z,19.74
2023-08-04T20:15:08.790Z,19.69
2023-08-04T20:17:36.837Z,19.66
2023-08-04T20:20:05.899Z,19.64
2023-08-04T20:22:35.200Z,19.61
2023-08-04T20:25:04.008Z,19.54
2023-08-04T20:27:31.830Z,19.49
2023-08-04T20:29:59.803Z,19.44
2023-08-04T20:32:27.814Z,19.40
2023-08-04T20:34:55.919Z,19.37
2023-08-04T20:37:24.036Z,19.31
2023-08-04T20:39:54.697Z,19.28
2023-08-04T20:42:22.776Z,19.22
2023-08-04T20:44:51.576Z,19.16
2023-08-04T20:47:19.595Z,19.13
2023-08-04T20:49:47.598Z,19.06
2023-08-04T20:52:16.709Z,19.02
2023-08-04T20:54:45.810Z,18.97
2023-08-04T20:57:15.130Z,18.95
2023-08-04T20:59:43.050Z,18.93
2023-08-04T21:02:11.013Z,18.88
2023-08-04T21:04:38.988Z,18.85
2023-08-04T21:07:09.078Z,18.83
2023-08-04T21:09:39.152Z,18.79
2023-08-04T21:12:07.698Z,18.77
2023-08-04T21:14:37.001Z,18.74
2023-08-04T21:17:05.270Z,18.72
2023-08-04T21:19:33.286Z,18.72
2023-08-04T21:22:01.270Z,18.72
2023-08-04T21:24:29.274Z,18.70
2023-08-04T21:26:57.344Z,18.68
2023-08-04T21:29:25.467Z,18.66
2023-08-04T21:31:54.829Z,18.66
2023-08-04T21:34:22.806Z,18.65
2023-08-04T21:36:51.085Z,18.81
2023-08-04T21:39:19.274Z,18.79
2023-08-04T21:41:47.178Z,18.87
2023-08-04T21:44:15.420Z,18.85
2023-08-04T21:46:43.712Z,18.81
2023-08-04T21:49:17.598Z,18.80
2023-08-04T21:51:46.042Z,18.78
2023-08-04T21:54:14.364Z,18.76
2023-08-04T21:56:42.342Z,18.71
2023-08-04T21:59:11.238Z,18.65
2023-08-04T22:01:39.393Z,18.66
2023-08-04T22:04:07.381Z,18.65
2023-08-04T22:06:36.682Z,18.58
2023-08-04T22:09:04.684Z,18.55
2023-08-04T22:11:32.569Z,18.46
2023-08-04T22:14:00.782Z,18.49
2023-08-04T22:16:28.967Z,18.40
2023-08-04T22:18:56.965Z,18.36
2023-08-04T22:21:24.992Z,18.30
2023-08-04T22:23:54.319Z,18.27
2023-08-04T22:26:22.288Z,18.27
2023-08-04T22:28:50.246Z,18.26
2023-08-04T22:31:18.242Z,18.20
2023-08-04T22:33:46.134Z,18.17
2023-08-04T22:36:13.996Z,18.15
2023-08-04T22:38:41.910Z,18.12
2023-08-04T22:41:11.190Z,18.10
2023-08-04T22:43:39.148Z,18.07
2023-08-04T22:46:07.122Z,18.07
2023-08-04T22:48:35.076Z,18.05
2023-08-04T22:51:03.005Z,18.03
2023-08-04T22:53:30.938Z,18.03
2023-08-04T22:56:00.618Z,18.00
2023-08-04T22:58:29.887Z,18.00
2023-08-04T23:00:58.075Z,17.99
2023-08-04T23:03:26.038Z,17.99
2023-08-04T23:05:54.040Z,17.95
2023-08-04T23:08:21.942Z,17.94
2023-08-04T23:10:56.159Z,17.92
2023-08-04T23:13:24.317Z,17.91
2023-08-04T23:15:53.721Z,17.92
2023-08-04T23:18:21.685Z,17.93
2023-08-04T23:20:49.965Z,17.77
2023-08-04T23:23:18.296Z,17.73
2023-08-04T23:25:46.768Z,17.70
2023-08-04T23:28:15.037Z,17.67
2023-08-04T23:30:46.869Z,17.66
2023-08-04T23:33:17.232Z,17.63
2023-08-04T23:35:52.411Z,17.66
2023-08-04T23:38:20.474Z,17.60
2023-08-04T23:40:48.507Z,17.60
2023-08-04T23:43:16.598Z,17.60
2023-08-04T23:45:44.515Z,17.54
2023-08-04T23:48:12.450Z,17.51
2023-08-04T23:50:41.712Z,17.45
2023-08-04T23:53:09.648Z,17.44
2023-08-04T23:55:37.494Z,17.37
2023-08-04T23:58:05.457Z,17.38
